Time;durP1;ratioP1;P1;durP2;ratioP2;P2;SDS_P1;SDS_P2;PMS_P1;PMS_P2;Temp;Humidity;BMP_temperature;BMP_pressure;BME280_temperature;BME280_humidity;BME280_pressure;Samples;Min_cycle;Max_cycle;Signal;HPM_P1;HPM_P2
2022/11/25 00:01:26;;;;;;;23.23;2.30;;;5.60;99.90;;;;;;5007458;28;20485;-70
2022/11/25 00:03:56;;;;;;;3.10;2.05;;;5.50;99.90;;;;;;5005490;28;20030;-70
2022/11/25 00:06:42;;;;;;;27.15;3.17;;;5.40;99.90;;;;;;4990631;28;20062;-70
2022/11/25 00:09:11;;;;;;;7.03;3.72;;;5.40;99.90;;;;;;5009302;28;20030;-71
2022/11/25 00:11:40;;;;;;;4.88;3.00;;;5.40;99.90;;;;;;5009415;28;20033;-71
2022/11/25 00:14:10;;;;;;;6.45;2.42;;;5.40;99.90;;;;;;5010001;28;20042;-71
2022/11/25 00:16:36;;;;;;;7.32;2.40;;;5.40;99.90;;;;;;5009710;28;20396;-71
2022/11/25 00:19:02;;;;;;;9.60;3.00;;;5.40;99.90;;;;;;5009136;28;20034;-70
2022/11/25 00:21:32;;;;;;;4.75;2.40;;;5.30;99.90;;;;;;5008555;28;20052;-70
2022/11/25 00:24:01;;;;;;;6.15;2.22;;;5.30;99.90;;;;;;5004688;28;20038;-71
2022/11/25 00:26:36;;;;;;;8.23;2.42;;;5.30;99.90;;;;;;5010548;28;20026;-71
2022/11/25 00:29:05;;;;;;;5.95;2.10;;;5.30;99.90;;;;;;5010074;28;20034;-71
2022/11/25 00:31:35;;;;;;;6.85;2.17;;;5.30;99.90;;;;;;5010151;28;20068;-71
2022/11/25 00:34:02;;;;;;;7.38;2.08;;;5.30;99.90;;;;;;5010038;28;20029;-71
2022/11/25 00:36:34;;;;;;;2.35;1.95;;;5.20;99.90;;;;;;5008661;28;20125;-71
2022/11/25 00:39:12;;;;;;;6.85;2.78;;;5.20;99.90;;;;;;4991311;28;20081;-71
2022/11/25 00:44:35;;;;;;;12.75;2.03;;;5.20;99.90;;;;;;5009603;28;20042;-71
2022/11/25 00:47:15;;;;;;;5.88;2.80;;;5.20;99.90;;;;;;5013111;28;20037;-71
2022/11/25 00:49:44;;;;;;;4.05;2.38;;;5.20;99.90;;;;;;5011437;28;20030;-70
2022/11/25 00:52:15;;;;;;;4.50;2.80;;;5.20;99.90;;;;;;5013258;28;20502;-70
2022/11/25 00:54:43;;;;;;;;;;;5.20;99.90;;;;;;4986350;28;20026;-70
2022/11/25 00:57:10;;;;;;;14.57;2.20;;;5.20;99.90;;;;;;5009377;28;20011;-70
2022/11/25 00:59:35;;;;;;;3.60;1.55;;;5.20;99.90;;;;;;4998021;28;20492;-70
2022/11/25 01:02:01;;;;;;;2.92;1.90;;;5.20;99.90;;;;;;5010492;28;20100;-70
2022/11/25 01:04:27;;;;;;;4.72;1.98;;;5.10;99.90;;;;;;5012329;28;20045;-70
2022/11/25 01:06:55;;;;;;;11.43;2.83;;;5.10;99.90;;;;;;5009126;28;20404;-70
2022/11/25 01:09:21;;;;;;;3.70;2.58;;;5.10;99.90;;;;;;5005282;28;20033;-72
2022/11/25 01:11:51;;;;;;;4.65;2.38;;;5.10;99.90;;;;;;5012950;28;20036;-70
2022/11/25 01:14:19;;;;;;;8.63;1.95;;;5.20;99.90;;;;;;5010885;28;20034;-70
2022/11/25 01:16:44;;;;;;;9.77;2.65;;;5.20;99.90;;;;;;5007605;28;20091;-70
2022/11/25 01:19:11;;;;;;;3.75;1.27;;;5.20;99.90;;;;;;5012511;28;20060;-70
2022/11/25 01:21:37;;;;;;;5.30;2.35;;;5.10;99.90;;;;;;5011678;28;20029;-71
2022/11/25 01:24:05;;;;;;;5.65;1.10;;;5.10;99.90;;;;;;5011612;28;20034;-70
2022/11/25 01:26:32;;;;;;;5.93;1.95;;;5.10;99.90;;;;;;5013214;28;20062;-71
2022/11/25 01:29:01;;;;;;;6.10;1.63;;;5.10;99.90;;;;;;5013020;28;20118;-71
2022/11/25 01:31:31;;;;;;;16.90;1.27;;;5.10;99.90;;;;;;5012588;28;20034;-71
2022/11/25 01:34:00;;;;;;;5.20;1.80;;;5.10;99.90;;;;;;5012718;28;20037;-70
2022/11/25 01:36:27;;;;;;;0.65;0.65;;;5.10;99.90;;;;;;5011953;28;20481;-70
2022/11/25 01:38:56;;;;;;;2.30;1.67;;;5.10;99.90;;;;;;5012793;28;20029;-71
2022/11/25 01:41:26;;;;;;;12.43;2.53;;;5.20;99.90;;;;;;5003695;28;20048;-71
2022/11/25 01:44:15;;;;;;;6.18;1.23;;;5.20;99.90;;;;;;5012560;28;20089;-70
2022/11/25 01:47:02;;;;;;;7.07;1.60;;;5.20;99.90;;;;;;5007728;28;20065;-70
2022/11/25 01:49:48;;;;;;;7.20;1.23;;;5.20;99.90;;;;;;5012530;28;20030;-71
2022/11/25 01:52:38;;;;;;;5.28;2.72;;;5.20;99.90;;;;;;5010789;28;20572;-70
2022/11/25 01:55:14;;;;;;;5.60;2.30;;;5.20;99.90;;;;;;5012214;28;20061;-70
2022/11/25 01:57:44;;;;;;;3.78;2.03;;;5.30;99.90;;;;;;5012593;28;20485;-70
2022/11/25 02:00:10;;;;;;;9.20;3.13;;;5.20;99.90;;;;;;5011128;28;20038;-70
2022/11/25 02:02:36;;;;;;;2.80;1.13;;;5.20;99.90;;;;;;5012146;28;20448;-71
2022/11/25 02:05:09;;;;;;;2.05;1.42;;;5.30;99.90;;;;;;5008398;28;20113;-71
2022/11/25 02:07:43;;;;;;;3.17;1.95;;;5.30;99.90;;;;;;5007007;28;20437;-71
2022/11/25 02:10:17;;;;;;;3.10;2.15;;;5.40;99.90;;;;;;5010607;28;20034;-71
2022/11/25 02:12:45;;;;;;;3.10;1.40;;;5.50;99.90;;;;;;5011992;28;20037;-71
2022/11/25 02:15:12;;;;;;;4.30;2.03;;;5.50;99.90;;;;;;5010679;28;20128;-71
2022/11/25 02:17:38;;;;;;;8.75;1.98;;;5.50;99.90;;;;;;5012509;28;20105;-70
2022/11/25 02:20:13;;;;;;;4.22;1.38;;;5.50;99.90;;;;;;5010528;28;20113;-71
2022/11/25 02:23:15;;;;;;;8.55;1.92;;;5.50;99.90;;;;;;5012044;28;20034;-70
2022/11/25 02:25:42;;;;;;;;;;;5.50;99.90;;;;;;5007746;28;20044;-70
2022/11/25 02:28:20;;;;;;;2.97;1.33;;;5.40;99.90;;;;;;5011122;28;19910;-70
2022/11/25 02:30:47;;;;;;;8.27;3.20;;;5.40;99.90;;;;;;5011874;28;20544;-70
2022/11/25 02:33:14;;;;;;;16.73;2.10;;;5.30;99.90;;;;;;4994090;28;20140;-70
2022/11/25 02:35:41;;;;;;;4.68;2.88;;;5.30;99.90;;;;;;4994057;28;20081;-70
2022/11/25 02:38:23;;;;;;;3.83;1.88;;;5.30;99.90;;;;;;5011948;28;20084;-70
2022/11/25 02:40:53;;;;;;;1.98;1.17;;;5.30;99.90;;;;;;5010233;28;20049;-70
2022/11/25 02:43:20;;;;;;;6.07;2.38;;;5.30;99.90;;;;;;4990635;28;20041;-69
2022/11/25 02:46:03;;;;;;;2.75;1.52;;;5.20;99.90;;;;;;5006268;28;20038;-70
2022/11/25 02:48:32;;;;;;;3.97;2.10;;;5.20;99.90;;;;;;4990831;28;20056;-69
2022/11/25 02:50:58;;;;;;;9.82;1.98;;;5.20;99.90;;;;;;5008491;28;20494;-70
2022/11/25 02:53:24;;;;;;;11.15;2.00;;;5.10;99.90;;;;;;5011246;28;20076;-70
2022/11/25 02:55:50;;;;;;;5.40;2.55;;;5.10;99.90;;;;;;5009690;28;20034;-70
2022/11/25 02:58:17;;;;;;;4.28;2.22;;;5.10;99.90;;;;;;5010182;28;20045;-70
2022/11/25 03:00:43;;;;;;;3.63;1.90;;;5.10;99.90;;;;;;5009729;28;20030;-70
2022/11/25 03:03:10;;;;;;;7.53;2.20;;;5.10;99.90;;;;;;5011080;28;20077;-70
2022/11/25 03:05:36;;;;;;;4.68;1.27;;;5.00;99.90;;;;;;5010628;28;20034;-70
2022/11/25 03:08:03;;;;;;;3.97;1.48;;;5.00;99.90;;;;;;5009677;28;20362;-70
2022/11/25 03:10:29;;;;;;;1.63;1.17;;;5.00;99.90;;;;;;5009396;28;20033;-70
2022/11/25 03:12:55;;;;;;;12.85;2.13;;;5.00;99.90;;;;;;5011287;28;20033;-70
2022/11/25 03:15:21;;;;;;;2.58;2.17;;;5.10;99.90;;;;;;5010740;28;20535;-70
2022/11/25 03:17:47;;;;;;;8.50;2.10;;;5.00;99.90;;;;;;5008304;28;20038;-70
2022/11/25 03:20:14;;;;;;;4.93;2.25;;;5.10;99.90;;;;;;5009698;28;20030;-70
2022/11/25 03:22:43;;;;;;;2.00;1.50;;;5.10;99.90;;;;;;5009650;28;20065;-70
2022/11/25 03:25:12;;;;;;;4.03;1.25;;;5.20;99.90;;;;;;5009043;28;20040;-70
2022/11/25 03:27:39;;;;;;;6.25;1.40;;;5.20;99.90;;;;;;4992806;28;20025;-71
2022/11/25 03:30:08;;;;;;;5.35;1.38;;;5.30;99.90;;;;;;5010358;28;20398;-70
2022/11/25 03:32:34;;;;;;;6.97;1.90;;;5.30;99.90;;;;;;5009970;28;20034;-69
2022/11/25 03:35:00;;;;;;;5.78;2.10;;;5.30;99.90;;;;;;5009859;28;20135;-69
2022/11/25 03:37:26;;;;;;;3.30;1.10;;;5.40;99.90;;;;;;5010396;28;20527;-72
2022/11/25 03:39:52;;;;;;;1.58;1.15;;;5.40;99.90;;;;;;5008502;28;20127;-70
2022/11/25 03:42:17;;;;;;;3.10;1.70;;;5.40;99.90;;;;;;5008816;28;20448;-70
2022/11/25 03:44:43;;;;;;;6.53;1.90;;;5.40;99.90;;;;;;5020638;28;20507;-70
2022/11/25 03:47:09;;;;;;;1.98;1.27;;;5.50;99.90;;;;;;5001043;28;20037;-70
2022/11/25 03:49:34;;;;;;;7.60;3.17;;;5.40;99.90;;;;;;4999961;28;20037;-69
2022/11/25 03:52:00;;;;;;;4.38;2.58;;;5.50;99.90;;;;;;4997801;28;20036;-70
2022/11/25 03:54:26;;;;;;;9.90;1.52;;;5.50;99.90;;;;;;5004404;28;20038;-70
2022/11/25 03:56:52;;;;;;;2.60;1.67;;;5.50;99.90;;;;;;5009364;28;20074;-70
2022/11/25 03:59:17;;;;;;;2.35;1.40;;;5.50;99.90;;;;;;5008663;28;20092;-70
2022/11/25 04:01:43;;;;;;;3.20;1.55;;;5.50;99.90;;;;;;5009974;28;20103;-71
2022/11/25 04:04:09;;;;;;;8.85;1.35;;;5.50;99.90;;;;;;5010660;28;20084;-71
2022/11/25 04:06:38;;;;;;;2.10;1.35;;;5.50;99.90;;;;;;5006490;28;20030;-71
2022/11/25 04:09:13;;;;;;;10.38;1.63;;;5.50;99.90;;;;;;5009877;28;20044;-71
2022/11/25 04:14:23;;;;;;;3.92;1.75;;;5.60;99.90;;;;;;5010037;28;20053;-71
2022/11/25 04:16:49;;;;;;;27.63;1.80;;;5.60;99.90;;;;;;5010198;28;20060;-71
2022/11/25 04:19:15;;;;;;;7.35;1.95;;;5.60;99.90;;;;;;5008752;28;20116;-70
2022/11/25 04:21:41;;;;;;;3.85;1.67;;;5.70;99.90;;;;;;5012942;28;20033;-71
2022/11/25 04:24:07;;;;;;;3.30;1.30;;;5.80;99.90;;;;;;5013847;28;20120;-71
2022/11/25 04:26:33;;;;;;;4.03;1.70;;;5.80;99.90;;;;;;5013310;28;20076;-70
2022/11/25 04:28:59;;;;;;;1.63;0.95;;;5.90;99.90;;;;;;5012463;28;20030;-70
2022/11/25 04:31:24;;;;;;;12.65;2.03;;;6.00;99.90;;;;;;5014071;28;20030;-70
2022/11/25 04:33:50;;;;;;;11.00;2.85;;;6.00;99.90;;;;;;5013991;28;20548;-71
2022/11/25 04:36:16;;;;;;;4.93;1.30;;;6.00;99.90;;;;;;5006378;28;20029;-71
2022/11/25 04:38:41;;;;;;;10.05;1.35;;;6.00;99.90;;;;;;5013796;28;20030;-70
2022/11/25 04:41:07;;;;;;;5.57;1.55;;;6.10;99.90;;;;;;5004808;28;20449;-70
2022/11/25 04:43:33;;;;;;;2.28;1.50;;;6.20;99.90;;;;;;5013790;28;20401;-70
2022/11/25 04:45:59;;;;;;;5.50;1.00;;;6.30;99.90;;;;;;5013235;28;20433;-70
2022/11/25 04:48:25;;;;;;;7.03;1.58;;;6.40;99.90;;;;;;5013141;28;20099;-70
2022/11/25 04:50:50;;;;;;;2.35;1.02;;;6.40;99.90;;;;;;5013839;28;20473;-71
2022/11/25 04:53:16;;;;;;;8.85;1.88;;;6.40;99.90;;;;;;5013256;28;20038;-70
2022/11/25 04:55:43;;;;;;;10.82;2.80;;;6.40;99.90;;;;;;5013217;28;20037;-69
2022/11/25 04:58:10;;;;;;;7.75;2.35;;;6.40;99.90;;;;;;5008913;28;20034;-70
2022/11/25 05:00:36;;;;;;;2.83;1.50;;;6.30;99.90;;;;;;5012272;28;20030;-70
2022/11/25 05:03:01;;;;;;;6.65;1.52;;;6.20;99.90;;;;;;5012678;28;20394;-70
2022/11/25 05:05:27;;;;;;;4.85;1.50;;;6.10;99.90;;;;;;5013496;28;20112;-70
2022/11/25 05:07:53;;;;;;;3.97;1.45;;;6.10;99.90;;;;;;5006551;28;20034;-70
2022/11/25 05:10:19;;;;;;;3.90;0.93;;;6.00;99.90;;;;;;5013326;28;20034;-70
2022/11/25 05:12:45;;;;;;;5.22;1.85;;;6.00;99.90;;;;;;5007033;28;20038;-70
2022/11/25 05:15:10;;;;;;;6.38;2.10;;;6.00;99.90;;;;;;5012063;28;20030;-70
2022/11/25 05:17:36;;;;;;;1.08;0.80;;;5.90;99.90;;;;;;5012907;28;20034;-70
2022/11/25 05:20:03;;;;;;;6.22;1.25;;;5.90;99.90;;;;;;5011926;28;20030;-70
2022/11/25 05:22:31;;;;;;;3.58;1.00;;;5.90;99.90;;;;;;5011316;28;20048;-70
2022/11/25 05:24:57;;;;;;;5.03;2.08;;;5.90;99.90;;;;;;5011511;28;20478;-70
2022/11/25 05:27:24;;;;;;;8.30;1.98;;;5.80;99.90;;;;;;5012869;28;20045;-71
2022/11/25 05:29:50;;;;;;;9.77;1.90;;;5.90;99.90;;;;;;5011980;28;20030;-70
2022/11/25 05:32:16;;;;;;;1.92;1.08;;;6.00;99.90;;;;;;5011389;28;20033;-70
2022/11/25 05:34:42;;;;;;;1.55;0.90;;;5.90;99.90;;;;;;5012691;28;20038;-70
2022/11/25 05:37:11;;;;;;;3.13;0.90;;;6.00;99.90;;;;;;5011241;28;20030;-69
2022/11/25 05:39:37;;;;;;;3.53;1.83;;;6.00;99.90;;;;;;5003575;28;20040;-71
2022/11/25 05:42:03;;;;;;;3.35;1.45;;;6.00;99.90;;;;;;5012706;28;20021;-71
2022/11/25 05:44:29;;;;;;;2.45;1.85;;;6.10;99.90;;;;;;5011587;28;20084;-71
2022/11/25 05:46:55;;;;;;;3.47;1.08;;;6.10;99.90;;;;;;5011520;28;20026;-71
2022/11/25 05:49:21;;;;;;;13.02;1.45;;;6.10;99.90;;;;;;5010536;28;20108;-71
2022/11/25 05:51:47;;;;;;;2.47;1.42;;;6.10;99.90;;;;;;5012337;28;20025;-70
2022/11/25 05:54:13;;;;;;;5.05;1.88;;;6.20;99.90;;;;;;5011737;28;20034;-70
2022/11/25 05:56:39;;;;;;;1.20;0.90;;;6.30;99.90;;;;;;5012116;28;20541;-72
2022/11/25 05:59:06;;;;;;;2.42;1.55;;;6.40;99.90;;;;;;5007300;28;20110;-71
2022/11/25 06:01:32;;;;;;;2.60;1.17;;;6.40;99.90;;;;;;5007660;28;20706;-71
2022/11/25 06:04:03;;;;;;;3.50;1.52;;;6.50;99.90;;;;;;5011766;28;20044;-70
2022/11/25 06:06:29;;;;;;;4.32;1.08;;;6.50;99.90;;;;;;5011690;28;20111;-70
2022/11/25 06:08:55;;;;;;;2.92;1.33;;;6.50;99.90;;;;;;5011777;28;20116;-74
2022/11/25 06:11:21;;;;;;;4.68;1.63;;;6.60;99.90;;;;;;5010593;28;20592;-75
2022/11/25 06:13:47;;;;;;;3.03;1.10;;;6.60;99.90;;;;;;5010319;28;20045;-74
2022/11/25 06:16:17;;;;;;;2.58;1.08;;;6.60;99.90;;;;;;5010566;28;20038;-74
2022/11/25 06:18:43;;;;;;;9.15;1.70;;;6.70;99.90;;;;;;5011551;28;20065;-77
2022/11/25 06:21:10;;;;;;;6.38;2.20;;;6.80;99.90;;;;;;5010713;28;20069;-75
2022/11/25 06:23:37;;;;;;;4.00;1.77;;;6.80;99.90;;;;;;5011192;28;20053;-73
2022/11/25 06:26:17;;;;;;;3.22;1.52;;;6.70;99.90;;;;;;5009084;28;20394;-72
2022/11/25 06:28:43;;;;;;;5.32;2.20;;;6.80;99.90;;;;;;5011120;28;20037;-74
2022/11/25 06:31:15;;;;;;;4.43;2.05;;;6.80;99.90;;;;;;5003520;28;20026;-73
2022/11/25 06:33:42;;;;;;;2.30;1.33;;;6.80;99.90;;;;;;5009994;28;20022;-76
2022/11/25 06:36:15;;;;;;;4.57;2.78;;;6.80;99.90;;;;;;5015393;28;20030;-75
2022/11/25 06:38:52;;;;;;;11.93;3.05;;;6.80;99.90;;;;;;5007473;28;20065;-74
2022/11/25 06:41:20;;;;;;;4.32;1.88;;;6.90;99.90;;;;;;4989990;28;20034;-75
2022/11/25 06:43:46;;;;;;;1.63;1.33;;;6.90;99.90;;;;;;5010076;28;20033;-75
2022/11/25 06:46:18;;;;;;;6.60;2.22;;;6.80;99.90;;;;;;5006659;28;20034;-77
2022/11/25 06:48:44;;;;;;;5.28;1.65;;;6.80;99.90;;;;;;5000002;28;20029;-73
2022/11/25 06:51:12;;;;;;;3.13;2.00;;;6.70;99.90;;;;;;5009563;28;20041;-75
2022/11/25 06:53:38;;;;;;;3.50;2.08;;;6.60;99.90;;;;;;4988657;28;20106;-75
2022/11/25 06:56:12;;;;;;;3.28;1.70;;;6.60;99.90;;;;;;5007630;28;20030;-76
2022/11/25 06:58:39;;;;;;;6.15;1.75;;;6.70;99.90;;;;;;5009415;28;20030;-74
2022/11/25 07:01:26;;;;;;;9.75;2.78;;;6.60;99.90;;;;;;5011106;28;20026;-74
2022/11/25 07:03:57;;;;;;;1.63;1.25;;;6.60;99.90;;;;;;5002217;28;20498;-75
2022/11/25 07:06:22;;;;;;;4.07;1.73;;;6.60;99.90;;;;;;5001119;28;20455;-74
2022/11/25 07:08:48;;;;;;;12.43;1.63;;;6.50;99.90;;;;;;5009206;28;20029;-74
2022/11/25 07:11:30;;;;;;;3.50;1.83;;;6.50;99.90;;;;;;5009376;28;20021;-74
2022/11/25 07:14:01;;;;;;;;;;;6.50;99.90;;;;;;5006735;28;20034;-74
2022/11/25 07:16:27;;;;;;;15.80;4.88;;;6.50;99.90;;;;;;5010730;28;20281;-74
2022/11/25 07:18:54;;;;;;;6.90;2.22;;;6.60;99.90;;;;;;5005308;28;20055;-74
2022/11/25 07:21:23;;;;;;;1.98;1.23;;;6.50;99.90;;;;;;5002797;28;20026;-74
2022/11/25 07:23:50;;;;;;;3.92;1.52;;;6.50;99.90;;;;;;5005754;28;20038;-74
2022/11/25 07:26:20;;;;;;;1.98;1.48;;;6.40;99.90;;;;;;5010377;28;20084;-75
2022/11/25 07:28:47;;;;;;;3.15;1.60;;;6.40;99.90;;;;;;5005772;28;20049;-74
2022/11/25 07:31:26;;;;;;;12.75;1.52;;;6.40;99.90;;;;;;5009881;28;20117;-74
2022/11/25 07:33:59;;;;;;;9.73;1.65;;;6.40;99.90;;;;;;5004452;28;20065;-73
2022/11/25 07:36:27;;;;;;;10.07;1.88;;;6.40;99.90;;;;;;5002278;28;20030;-74
2022/11/25 07:38:53;;;;;;;13.65;1.67;;;6.40;99.90;;;;;;5010584;28;20116;-74
2022/11/25 07:41:22;;;;;;;5.43;1.42;;;6.50;99.90;;;;;;5008989;28;20398;-74
2022/11/25 07:43:52;;;;;;;2.70;1.95;;;6.50;99.90;;;;;;5009824;28;20065;-74
2022/11/25 07:46:27;;;;;;;3.08;1.63;;;6.50;99.90;;;;;;5025454;28;20120;-73
2022/11/25 07:48:59;;;;;;;2.90;1.92;;;6.60;99.90;;;;;;5007574;28;20033;-74
2022/11/25 07:51:31;;;;;;;4.70;1.48;;;6.60;99.90;;;;;;5008067;28;20041;-74
2022/11/25 07:53:59;;;;;;;8.23;2.42;;;6.60;99.90;;;;;;5009093;28;20037;-74
2022/11/25 07:56:27;;;;;;;5.95;1.63;;;6.70;99.90;;;;;;5010359;28;20095;-74
2022/11/25 07:58:54;;;;;;;2.33;1.17;;;6.70;99.90;;;;;;5009620;28;20030;-74
2022/11/25 08:01:20;;;;;;;3.08;1.48;;;6.70;99.90;;;;;;5001821;28;20041;-74
2022/11/25 08:03:49;;;;;;;2.10;1.27;;;6.70;99.90;;;;;;5024728;28;20038;-73
2022/11/25 08:06:18;;;;;;;2.72;1.33;;;6.70;99.90;;;;;;5008920;28;20129;-74
2022/11/25 08:08:44;;;;;;;3.22;1.58;;;6.60;99.90;;;;;;5009816;28;20030;-73
2022/11/25 08:11:17;;;;;;;5.30;1.77;;;6.60;99.90;;;;;;5008754;28;20061;-73
2022/11/25 08:13:44;;;;;;;1.88;1.20;;;6.70;99.90;;;;;;5004455;28;20058;-73
2022/11/25 08:16:13;;;;;;;4.82;1.52;;;6.70;99.90;;;;;;4991711;28;20046;-74
2022/11/25 08:18:39;;;;;;;4.53;2.28;;;6.60;99.90;;;;;;5005257;28;20031;-74
2022/11/25 08:21:11;;;;;;;3.95;1.85;;;6.70;99.90;;;;;;5006820;28;20097;-73
2022/11/25 08:23:39;;;;;;;2.88;1.83;;;6.70;99.90;;;;;;5004204;28;20034;-73
2022/11/25 08:26:13;;;;;;;9.52;3.35;;;6.90;99.90;;;;;;5006928;28;20446;-73
2022/11/25 08:28:40;;;;;;;3.25;2.15;;;6.90;99.90;;;;;;4989305;28;20686;-73
2022/11/25 08:31:11;;;;;;;3.83;1.45;;;6.90;99.90;;;;;;4990739;28;20034;-73
2022/11/25 08:33:37;;;;;;;4.20;2.15;;;6.90;99.90;;;;;;5004717;28;20045;-74
2022/11/25 08:36:05;;;;;;;5.53;1.98;;;7.00;99.90;;;;;;5006247;28;20048;-73
2022/11/25 08:38:31;;;;;;;5.55;1.90;;;7.10;99.90;;;;;;5009743;28;20056;-74
2022/11/25 08:40:57;;;;;;;6.30;2.78;;;7.10;99.90;;;;;;5009728;28;20038;-74
2022/11/25 08:43:23;;;;;;;5.95;2.00;;;7.20;99.90;;;;;;5007826;28;20030;-73
2022/11/25 08:45:49;;;;;;;2.20;1.23;;;7.20;99.90;;;;;;5007963;28;20038;-73
2022/11/25 08:48:18;;;;;;;2.22;1.10;;;7.20;99.90;;;;;;5009459;28;20040;-74
2022/11/25 08:50:49;;;;;;;16.92;1.90;;;7.30;99.90;;;;;;5009688;28;20034;-74
2022/11/25 08:53:15;;;;;;;;;;;7.40;99.90;;;;;;5008854;28;20839;-71
2022/11/25 08:55:41;;;;;;;3.03;1.88;;;7.30;99.90;;;;;;5007072;28;19936;-73
2022/11/25 08:58:10;;;;;;;6.05;1.80;;;7.30;99.90;;;;;;5009508;28;20026;-74
2022/11/25 09:00:43;;;;;;;3.38;1.70;;;7.40;99.90;;;;;;5008557;28;20036;-71
2022/11/25 09:03:10;;;;;;;16.40;2.75;;;7.30;99.90;;;;;;5009100;28;20429;-72
2022/11/25 09:05:42;;;;;;;2.40;1.25;;;7.30;99.90;;;;;;5009527;28;20034;-71
2022/11/25 09:08:09;;;;;;;8.98;3.20;;;7.30;99.90;;;;;;5011095;28;20037;-73
2022/11/25 09:10:37;;;;;;;13.63;3.15;;;7.30;99.90;;;;;;5010944;28;20366;-72
2022/11/25 09:13:03;;;;;;;6.30;2.83;;;7.30;99.90;;;;;;5011710;28;20056;-73
2022/11/25 09:15:29;;;;;;;6.55;2.03;;;7.30;99.90;;;;;;5012832;28;20556;-72
2022/11/25 09:18:08;;;;;;;5.35;1.90;;;7.20;99.90;;;;;;5011673;28;20486;-71
2022/11/25 09:20:37;;;;;;;2.75;1.73;;;7.30;99.90;;;;;;5006950;28;20026;-71
2022/11/25 09:23:03;;;;;;;6.85;2.13;;;7.20;99.90;;;;;;5012218;28;20048;-71
2022/11/25 09:25:29;;;;;;;11.70;3.22;;;7.20;99.90;;;;;;5013021;28;20053;-73
2022/11/25 09:27:55;;;;;;;6.38;2.35;;;7.30;99.90;;;;;;5012944;28;20021;-72
2022/11/25 09:30:23;;;;;;;4.00;1.92;;;7.30;99.90;;;;;;5005224;28;20025;-71
2022/11/25 09:32:51;;;;;;;4.28;2.38;;;7.20;99.90;;;;;;5011238;28;20030;-71
2022/11/25 09:35:18;;;;;;;7.15;1.67;;;7.30;99.90;;;;;;5012631;28;20436;-72
2022/11/25 09:37:44;;;;;;;3.70;2.15;;;7.40;99.90;;;;;;5012834;28;20061;-73
2022/11/25 09:40:19;;;;;;;4.72;2.20;;;7.40;99.90;;;;;;5012243;28;20104;-71
2022/11/25 09:47:03;;;;;;;5.10;2.17;;;7.40;99.90;;;;;;5012510;28;20053;-72
2022/11/25 09:50:03;;;;;;;3.70;1.92;;;7.40;99.90;;;;;;5012093;28;20037;-71
2022/11/25 09:53:12;;;;;;;7.05;2.78;;;7.40;99.90;;;;;;5008720;28;20045;-71
2022/11/25 09:55:49;;;;;;;4.53;2.10;;;7.40;99.90;;;;;;5006813;28;20037;-74
2022/11/25 09:58:37;;;;;;;9.50;2.40;;;7.40;99.90;;;;;;5006497;28;20030;-71
2022/11/25 10:01:12;;;;;;;4.15;2.17;;;7.40;99.90;;;;;;5016867;28;20029;-70
2022/11/25 10:03:44;;;;;;;13.57;3.10;;;7.30;99.90;;;;;;5010570;28;20033;-72
2022/11/25 10:06:24;;;;;;;6.22;2.08;;;7.40;99.90;;;;;;5011037;28;20037;-74
2022/11/25 10:08:55;;;;;;;3.22;1.55;;;7.30;99.90;;;;;;5009121;28;20036;-72
2022/11/25 10:11:23;;;;;;;;;;;7.40;99.90;;;;;;4994973;28;20085;-74
2022/11/25 10:13:57;;;;;;;10.30;1.88;;;7.40;99.90;;;;;;5012790;28;19920;-73
2022/11/25 10:16:25;;;;;;;3.90;2.35;;;7.50;99.90;;;;;;5010097;28;20037;-74
2022/11/25 10:19:04;;;;;;;3.72;1.55;;;7.50;99.90;;;;;;5008297;28;20481;-72
2022/11/25 10:21:30;;;;;;;12.95;2.13;;;7.60;99.90;;;;;;4992530;28;20037;-71
2022/11/25 10:23:56;;;;;;;16.73;1.83;;;7.60;99.90;;;;;;5008991;28;20022;-72
2022/11/25 10:26:34;;;;;;;4.82;1.98;;;7.60;99.90;;;;;;5011773;28;20496;-72
2022/11/25 10:29:12;;;;;;;9.15;2.08;;;7.60;99.90;;;;;;5007482;28;20033;-72
2022/11/25 10:31:40;;;;;;;4.20;2.03;;;7.70;99.90;;;;;;5009676;28;20165;-70
2022/11/25 10:34:28;;;;;;;5.60;1.55;;;7.70;99.90;;;;;;5008418;28;20105;-71
2022/11/25 10:36:57;;;;;;;4.50;1.63;;;7.80;99.90;;;;;;5011151;28;20113;-71
2022/11/25 10:39:26;;;;;;;7.13;2.30;;;7.80;99.90;;;;;;5010282;28;20026;-71
2022/11/25 10:41:58;;;;;;;2.17;1.70;;;7.80;99.90;;;;;;4995791;28;20050;-73
2022/11/25 10:44:32;;;;;;;5.95;1.38;;;7.80;99.90;;;;;;5002677;28;20052;-72
2022/11/25 10:47:37;;;;;;;8.35;2.35;;;7.90;99.90;;;;;;5007145;28;20033;-72
2022/11/25 10:50:34;;;;;;;8.57;2.15;;;7.90;99.90;;;;;;4992335;28;20509;-70
2022/11/25 10:53:16;;;;;;;3.88;2.20;;;7.90;99.90;;;;;;5010538;28;20038;-74
2022/11/25 10:55:57;;;;;;;7.47;2.78;;;8.00;99.90;;;;;;5011485;28;20025;-73
2022/11/25 10:58:33;;;;;;;6.95;1.73;;;8.10;99.90;;;;;;5011022;28;20084;-72
2022/11/25 11:01:22;;;;;;;8.20;2.67;;;8.20;99.90;;;;;;5011420;28;20100;-75
2022/11/25 11:04:10;;;;;;;4.35;1.77;;;8.20;99.90;;;;;;5010771;28;20054;-72
2022/11/25 11:06:39;;;;;;;5.47;2.58;;;8.30;99.90;;;;;;4992415;28;20054;-72
2022/11/25 11:09:25;;;;;;;3.05;2.33;;;8.30;99.90;;;;;;5010191;28;20034;-72
2022/11/25 11:11:51;;;;;;;10.68;3.15;;;8.30;99.90;;;;;;5005654;28;20018;-72
2022/11/25 11:14:20;;;;;;;6.05;2.38;;;8.30;99.90;;;;;;5010312;28;20397;-72
2022/11/25 11:16:55;;;;;;;2.72;1.67;;;8.40;99.90;;;;;;5010646;28;20057;-72
2022/11/25 11:19:30;;;;;;;7.72;2.63;;;8.40;99.90;;;;;;5003089;28;20029;-72
2022/11/25 11:22:13;;;;;;;3.53;2.22;;;8.40;99.90;;;;;;5005907;28;20061;-71
2022/11/25 11:24:41;;;;;;;6.00;2.20;;;8.60;99.90;;;;;;5009967;28;20382;-75
2022/11/25 11:27:24;;;;;;;10.80;2.88;;;8.70;99.90;;;;;;5014160;28;20488;-74
2022/11/25 11:30:19;;;;;;;12.63;4.40;;;8.80;99.90;;;;;;5009089;28;20042;-77
2022/11/25 11:33:04;;;;;;;5.82;2.20;;;8.90;99.90;;;;;;5010133;28;20495;-73
2022/11/25 11:35:48;;;;;;;4.15;2.72;;;8.80;99.90;;;;;;5004411;28;20045;-73
2022/11/25 11:38:38;;;;;;;7.03;2.60;;;8.60;99.90;;;;;;5010161;28;20037;-74
2022/11/25 11:41:27;;;;;;;4.18;2.08;;;8.60;99.90;;;;;;5007213;28;20026;-73
2022/11/25 11:44:14;;;;;;;7.13;3.08;;;8.60;99.90;;;;;;4996141;28;20104;-74
2022/11/25 11:47:18;;;;;;;6.82;2.55;;;8.70;99.90;;;;;;5006719;28;20042;-73
2022/11/25 11:50:02;;;;;;;6.05;2.00;;;8.70;99.90;;;;;;5002306;28;20064;-72
2022/11/25 11:53:00;;;;;;;9.40;2.78;;;8.70;99.90;;;;;;5005770;28;20026;-74
2022/11/25 11:56:06;;;;;;;4.50;2.42;;;8.80;99.90;;;;;;5005996;28;20049;-72
2022/11/25 11:58:59;;;;;;;7.20;2.40;;;8.80;99.90;;;;;;5005606;28;20037;-72
2022/11/25 12:01:52;;;;;;;4.45;2.45;;;8.80;99.90;;;;;;5007199;28;20044;-71
2022/11/25 12:04:28;;;;;;;5.63;2.50;;;9.00;99.90;;;;;;5008330;28;20034;-71
2022/11/25 12:07:14;;;;;;;5.47;2.50;;;9.40;99.90;;;;;;5005658;28;20112;-71
2022/11/25 12:09:58;;;;;;;14.32;3.65;;;9.80;99.90;;;;;;5007139;28;20036;-71
2022/11/25 12:12:51;;;;;;;6.28;2.83;;;10.10;99.90;;;;;;5008042;28;20038;-72
2022/11/25 12:15:27;;;;;;;5.47;2.40;;;10.10;99.90;;;;;;5008018;28;20432;-72
2022/11/25 12:17:59;;;;;;;3.97;1.77;;;9.90;99.90;;;;;;5005789;28;20030;-72
2022/11/25 12:20:51;;;;;;;3.20;1.70;;;9.70;99.90;;;;;;5007479;28;20029;-73
2022/11/25 12:24:03;;;;;;;4.07;1.92;;;9.60;99.90;;;;;;5006989;28;20080;-72
2022/11/25 12:26:50;;;;;;;12.73;1.88;;;9.50;99.90;;;;;;4922094;29;20866;-73
2022/11/25 12:29:40;;;;;;;7.45;2.75;;;9.50;99.90;;;;;;5001638;28;20513;-73
2022/11/25 12:32:34;;;;;;;7.57;3.67;;;9.50;99.90;;;;;;5008079;28;20034;-73
2022/11/25 12:35:34;;;;;;;6.55;2.63;;;9.50;99.90;;;;;;5007047;28;20026;-73
2022/11/25 12:38:29;;;;;;;5.45;2.67;;;9.50;99.90;;;;;;5006264;28;20401;-73
2022/11/25 12:41:46;;;;;;;5.20;2.25;;;9.60;99.90;;;;;;5006334;28;20109;-73
2022/11/25 12:44:31;;;;;;;2.85;1.65;;;9.50;99.90;;;;;;5011367;28;20477;-73
2022/11/25 12:46:57;;;;;;;6.65;3.03;;;9.70;99.90;;;;;;5009497;28;20532;-73
2022/11/25 12:49:34;;;;;;;9.45;3.55;;;9.80;99.90;;;;;;5013139;28;20109;-73
2022/11/25 12:52:23;;;;;;;10.18;3.08;;;9.80;99.90;;;;;;4994174;28;20034;-73
2022/11/25 12:55:04;;;;;;;4.20;2.08;;;10.00;99.90;;;;;;5011000;28;20025;-73
2022/11/25 12:58:04;;;;;;;;;;;10.00;99.90;;;;;;5013106;28;20105;-73
2022/11/25 13:01:02;;;;;;;4.95;2.25;;;9.90;99.90;;;;;;5012108;28;19929;-74
2022/11/25 13:04:21;;;;;;;8.20;2.63;;;9.90;99.90;;;;;;5012199;28;20038;-73
2022/11/25 13:07:20;;;;;;;5.97;1.60;;;9.90;99.90;;;;;;5011747;28;20485;-73
2022/11/25 13:10:08;;;;;;;3.85;2.17;;;9.80;99.90;;;;;;5009792;28;20125;-74
2022/11/25 13:13:08;;;;;;;7.53;2.22;;;9.90;99.90;;;;;;5010639;28;20645;-73
2022/11/25 13:15:45;;;;;;;7.55;2.05;;;9.90;99.90;;;;;;5009755;28;20037;-74
2022/11/25 13:18:17;;;;;;;4.95;1.92;;;10.00;99.90;;;;;;5011078;28;20159;-73
2022/11/25 13:20:48;;;;;;;3.92;1.58;;;10.00;99.90;;;;;;5011282;28;20029;-73
2022/11/25 13:23:16;;;;;;;11.75;2.33;;;10.00;99.90;;;;;;5009118;28;20038;-73
2022/11/25 13:25:46;;;;;;;5.15;1.85;;;10.00;99.90;;;;;;5013215;28;20433;-72
2022/11/25 13:28:36;;;;;;;3.15;2.17;;;9.90;99.90;;;;;;5012540;28;20030;-73
2022/11/25 13:32:01;;;;;;;3.72;2.30;;;9.90;99.90;;;;;;5012883;28;20037;-73
2022/11/25 13:34:33;;;;;;;2.42;1.45;;;9.80;99.90;;;;;;5004999;28;20136;-73
2022/11/25 13:37:01;;;;;;;7.10;2.78;;;9.90;99.90;;;;;;5027908;28;20034;-73